createdAt,value
2022-09-30T00:01:11.319Z,99723.22
2022-09-30T00:03:12.939Z,99725.59
2022-09-30T00:05:14.646Z,99727.19
2022-09-30T00:07:16.190Z,99723.22
2022-09-30T00:09:18.098Z,99718.91
2022-09-30T00:11:21.579Z,99721.94
2022-09-30T00:13:23.223Z,99726.13
2022-09-30T00:15:24.934Z,99724.06
2022-09-30T00:17:27.822Z,99724.06
2022-09-30T00:19:29.350Z,99725.34
2022-09-30T00:21:31.929Z,99726.91
2022-09-30T00:23:33.892Z,99723.75
2022-09-30T00:25:35.408Z,99727.25
2022-09-30T00:27:36.909Z,99722.47
2022-09-30T00:29:38.362Z,99721.22
2022-09-30T00:31:39.916Z,99719.31
2022-09-30T00:33:43.686Z,99725.53
2022-09-30T00:35:45.170Z,99723.28
2022-09-30T00:37:46.653Z,99726.84
2022-09-30T00:39:48.149Z,99725.91
2022-09-30T00:41:51.580Z,99729.41
2022-09-30T00:43:54.325Z,99730.69
2022-09-30T00:45:59.352Z,99724.56
2022-09-30T00:48:07.010Z,99726.97
2022-09-30T00:50:28.211Z,99727.97
2022-09-30T00:52:31.309Z,99720.50
2022-09-30T00:54:34.193Z,99720.88
2022-09-30T00:56:41.584Z,99724.44
2022-09-30T00:58:47.406Z,99725.69
2022-09-30T01:00:49.801Z,99726.63
2022-09-30T01:02:51.370Z,99725.97
2022-09-30T01:04:53.092Z,99721.50
2022-09-30T01:06:59.432Z,99730.75
2022-09-30T01:09:01.562Z,99733.16
2022-09-30T01:11:07.861Z,99726.91
2022-09-30T01:13:09.861Z,99723.56
2022-09-30T01:15:12.299Z,99728.66
2022-09-30T01:17:19.428Z,99728.00
2022-09-30T01:19:52.633Z,99733.56
2022-09-30T01:22:10.052Z,99733.09
2022-09-30T01:24:23.418Z,99732.31
2022-09-30T01:26:42.839Z,99733.44
2022-09-30T01:29:09.397Z,99738.66
2022-09-30T01:31:24.808Z,99741.22
2022-09-30T01:33:35.756Z,99744.63
2022-09-30T01:35:48.954Z,99747.97
2022-09-30T01:38:01.296Z,99745.75
2022-09-30T01:40:07.091Z,99745.25
2022-09-30T01:42:13.957Z,99741.28
2022-09-30T01:44:23.744Z,99740.47
2022-09-30T01:46:34.629Z,99745.25
2022-09-30T01:48:44.717Z,99743.19
2022-09-30T01:50:52.763Z,99748.16
2022-09-30T01:53:03.705Z,99750.22
2022-09-30T01:55:11.724Z,99756.75
2022-09-30T01:57:20.491Z,99760.59
2022-09-30T01:59:26.571Z,99761.25
2022-09-30T02:01:34.290Z,99766.34
2022-09-30T02:03:38.639Z,99771.94
2022-09-30T02:05:44.858Z,99774.16
2022-09-30T02:07:50.245Z,99771.44
2022-09-30T02:09:57.171Z,99775.28
2022-09-30T02:12:02.918Z,99773.25
2022-09-30T02:14:10.617Z,99776.72
2022-09-30T02:16:20.421Z,99780.91
2022-09-30T02:18:28.605Z,99787.31
2022-09-30T02:20:32.743Z,99780.94
2022-09-30T02:22:38.674Z,99782.84
2022-09-30T02:24:42.979Z,99782.22
2022-09-30T02:26:47.398Z,99782.38
2022-09-30T02:28:53.417Z,99790.50
2022-09-30T02:30:59.695Z,99794.34
2022-09-30T02:33:04.475Z,99790.19
2022-09-30T02:35:11.134Z,99789.41
2022-09-30T02:37:17.195Z,99789.06
2022-09-30T02:39:26.441Z,99785.38
2022-09-30T02:41:33.227Z,99787.50
2022-09-30T02:43:34.840Z,99790.69
2022-09-30T02:45:50.982Z,99782.56
2022-09-30T02:48:06.569Z,99783.53
2022-09-30T02:50:16.608Z,99792.44
2022-09-30T02:52:25.083Z,99790.38
2022-09-30T02:54:34.586Z,99779.38
2022-09-30T02:56:48.817Z,99786.38
2022-09-30T02:58:52.727Z,99791.16
2022-09-30T03:00:54.798Z,99789.72
2022-09-30T03:03:00.387Z,99790.50
2022-09-30T03:05:01.915Z,99789.72
2022-09-30T03:07:04.740Z,99793.56
2022-09-30T03:09:07.903Z,99791.97
2022-09-30T03:11:15.188Z,99799.47
2022-09-30T03:13:35.073Z,99805.66
2022-09-30T03:15:48.911Z,99808.03
2022-09-30T03:18:13.586Z,99807.44
2022-09-30T03:20:36.583Z,99805.81
2022-09-30T03:22:57.004Z,99805.66
2022-09-30T03:25:10.901Z,99808.84
2022-09-30T03:27:21.592Z,99807.75
2022-09-30T03:29:31.124Z,99803.59
2022-09-30T03:31:42.562Z,99804.44
2022-09-30T03:33:51.882Z,99805.22
2022-09-30T03:36:00.923Z,99800.13
2022-09-30T03:38:12.488Z,99802.81
2022-09-30T03:40:21.785Z,99805.81
2022-09-30T03:42:27.203Z,99812.69
2022-09-30T03:44:35.592Z,99813.81
2022-09-30T03:46:42.370Z,99811.41
2022-09-30T03:48:46.280Z,99809.50
2022-09-30T03:50:48.230Z,99814.91
2022-09-30T03:52:50.196Z,99814.13
2022-09-30T03:54:55.422Z,99814.47
2022-09-30T03:56:57.730Z,99814.00
2022-09-30T03:59:00.040Z,99815.09
2022-09-30T04:01:01.642Z,99811.59
2022-09-30T04:03:03.189Z,99813.84
2022-09-30T04:05:08.206Z,99817.00
2022-09-30T04:07:10.438Z,99815.88
2022-09-30T04:09:12.024Z,99821.16
2022-09-30T04:11:15.066Z,99824.50
2022-09-30T04:13:16.531Z,99820.88
2022-09-30T04:15:18.027Z,99823.72
2022-09-30T04:17:19.557Z,99832.19
2022-09-30T04:19:21.252Z,99825.50
2022-09-30T04:21:23.181Z,99831.69
2022-09-30T04:23:25.000Z,99833.44
2022-09-30T04:25:27.325Z,99840.47
2022-09-30T04:27:30.166Z,99848.44
2022-09-30T04:29:31.854Z,99846.69
2022-09-30T04:31:33.630Z,99843.50
2022-09-30T04:33:35.356Z,99849.72
2022-09-30T04:35:37.001Z,99855.00
2022-09-30T04:37:41.753Z,99847.16
2022-09-30T04:39:43.292Z,99857.22
2022-09-30T04:41:44.789Z,99854.19
2022-09-30T04:43:48.766Z,99863.56
2022-09-30T04:45:51.323Z,99865.16
2022-09-30T04:47:52.809Z,99867.88
2022-09-30T04:49:54.257Z,99880.03
2022-09-30T04:51:56.049Z,99875.22
2022-09-30T04:53:57.909Z,99881.13
2022-09-30T04:56:00.182Z,99887.47
2022-09-30T04:58:01.670Z,99881.41
2022-09-30T05:00:06.107Z,99886.03
2022-09-30T05:02:07.722Z,99891.44
2022-09-30T05:04:09.280Z,99896.06
2022-09-30T05:06:12.230Z,99895.91
2022-09-30T05:08:13.775Z,99897.97
2022-09-30T05:10:15.684Z,99898.25
2022-09-30T05:12:17.173Z,99899.69
2022-09-30T05:14:19.153Z,99902.72
2022-09-30T05:16:22.143Z,99900.81
2022-09-30T05:18:23.770Z,99915.94
2022-09-30T05:20:25.259Z,99907.81
2022-09-30T05:22:27.745Z,99908.78
2022-09-30T05:24:29.231Z,99908.28
2022-09-30T05:26:30.766Z,99907.66
2022-09-30T05:28:32.822Z,99914.34
2022-09-30T05:30:34.441Z,99924.69
2022-09-30T05:32:37.282Z,99923.91
2022-09-30T05:34:38.840Z,99926.63
2022-09-30T05:36:40.323Z,99932.03
2022-09-30T05:38:42.087Z,99934.59
2022-09-30T05:40:43.585Z,99935.19
2022-09-30T05:42:45.050Z,99935.81
2022-09-30T05:44:46.542Z,99940.28
2022-09-30T05:46:48.185Z,99944.09
2022-09-30T05:48:52.888Z,99943.91
2022-09-30T05:50:54.930Z,99942.50
2022-09-30T05:52:56.750Z,99946.59
2022-09-30T05:54:58.275Z,99948.22
2022-09-30T05:56:59.811Z,99958.09
2022-09-30T05:59:01.530Z,99963.22
2022-09-30T06:01:10.661Z,99975.34
2022-09-30T06:03:15.344Z,99985.84
2022-09-30T06:05:19.296Z,99993.97
2022-09-30T06:07:20.761Z,99994.97
2022-09-30T06:09:22.600Z,99992.56
2022-09-30T06:11:24.440Z,99993.19
2022-09-30T06:13:26.265Z,99993.97
2022-09-30T06:15:27.786Z,99994.16
2022-09-30T06:17:29.333Z,99994.97
2022-09-30T06:19:31.019Z,100000.38
2022-09-30T06:21:33.863Z,100002.47
2022-09-30T06:23:35.794Z,99994.16
2022-09-30T06:25:37.307Z,100000.25
2022-09-30T06:27:39.273Z,100002.63
2022-09-30T06:29:40.869Z,100008.06
2022-09-30T06:31:42.515Z,100003.75
2022-09-30T06:33:44.015Z,100004.38
2022-09-30T06:35:45.672Z,100012.69
2022-09-30T06:37:50.901Z,100017.28
2022-09-30T06:39:52.435Z,100020.00
2022-09-30T06:41:54.115Z,100017.00
2022-09-30T06:44:06.891Z,100024.81
2022-09-30T06:46:18.822Z,100024.31
2022-09-30T06:48:35.188Z,100040.25
2022-09-30T06:50:40.729Z,100038.03
2022-09-30T06:52:43.097Z,100043.16
2022-09-30T06:54:46.274Z,100038.84
2022-09-30T06:56:47.898Z,100030.56
2022-09-30T06:58:49.574Z,100039.06
2022-09-30T07:01:02.488Z,100034.91
2022-09-30T07:03:04.584Z,100038.84
2022-09-30T07:05:06.690Z,100041.28
2022-09-30T07:07:08.491Z,100039.53
2022-09-30T07:09:11.548Z,100041.63
2022-09-30T07:11:14.745Z,100042.56
2022-09-30T07:13:16.240Z,100045.59
2022-09-30T07:15:18.632Z,100044.94
2022-09-30T07:17:20.130Z,100050.84
2022-09-30T07:19:21.761Z,100048.78
2022-09-30T07:21:23.383Z,100051.97
2022-09-30T07:23:26.886Z,100047.03
2022-09-30T07:25:31.870Z,100037.78
2022-09-30T07:27:34.838Z,100048.13
2022-09-30T07:29:50.368Z,100055.97
2022-09-30T07:31:58.223Z,100057.88
2022-09-30T07:34:00.056Z,100058.03
2022-09-30T07:36:02.022Z,100059.97
2022-09-30T07:38:03.667Z,100066.38
2022-09-30T07:40:07.069Z,100066.38
2022-09-30T07:42:08.761Z,100060.94
2022-09-30T07:44:13.971Z,100069.53
2022-09-30T07:46:18.335Z,100073.84
2022-09-30T07:48:19.884Z,100076.28
2022-09-30T07:50:21.452Z,100083.59
2022-09-30T07:52:22.960Z,100089.34
2022-09-30T07:54:28.578Z,100087.41
2022-09-30T07:56:45.590Z,100095.69
2022-09-30T07:58:53.965Z,100092.81
2022-09-30T08:00:56.942Z,100092.34
2022-09-30T08:02:58.624Z,100091.22
2022-09-30T08:05:00.250Z,100094.91
2022-09-30T08:07:02.812Z,100093.97
2022-09-30T08:09:05.250Z,100097.59
2022-09-30T08:11:07.192Z,100107.63
2022-09-30T08:13:09.664Z,100103.50
2022-09-30T08:15:11.282Z,100104.56
2022-09-30T08:17:14.340Z,100112.50
2022-09-30T08:19:18.134Z,100121.94
2022-09-30T08:21:19.655Z,100124.50
2022-09-30T08:23:21.544Z,100122.91
2022-09-30T08:25:23.439Z,100129.16
2022-09-30T08:27:25.544Z,100126.44
2022-09-30T08:29:54.320Z,100130.75
2022-09-30T08:31:49.163Z,100133.47
2022-09-30T08:33:53.188Z,100132.81
2022-09-30T08:35:54.726Z,100131.09
2022-09-30T08:37:59.145Z,100128.88
2022-09-30T08:40:01.153Z,100133.47
2022-09-30T08:42:37.122Z,100138.63
2022-09-30T08:44:43.457Z,100138.78
2022-09-30T08:46:48.479Z,100138.94
2022-09-30T08:49:03.458Z,100144.53
2022-09-30T08:51:23.260Z,100146.66
2022-09-30T08:53:29.913Z,100144.06
2022-09-30T08:55:39.128Z,100143.72
2022-09-30T08:57:47.201Z,100137.03
2022-09-30T08:59:54.949Z,100137.72
2022-09-30T09:02:02.198Z,100133.13
2022-09-30T09:04:07.942Z,100134.69
2022-09-30T09:06:20.641Z,100132.31
2022-09-30T09:08:34.331Z,100135.97
2022-09-30T09:10:42.283Z,100137.78
2022-09-30T09:12:52.769Z,100134.69
2022-09-30T09:15:14.862Z,100134.91
2022-09-30T09:17:30.293Z,100131.25
2022-09-30T09:19:37.705Z,100138.28
2022-09-30T09:21:51.142Z,100133.75
2022-09-30T09:23:55.494Z,100135.53
2022-09-30T09:25:57.038Z,100137.31
2022-09-30T09:28:00.562Z,100136.84
2022-09-30T09:30:12.803Z,100134.78
2022-09-30T09:32:15.747Z,100134.47
2022-09-30T09:34:17.284Z,100130.81
2022-09-30T09:36:32.985Z,100126.19
2022-09-30T09:38:48.158Z,100121.06
2022-09-30T09:40:59.543Z,100123.16
2022-09-30T09:43:16.111Z,100114.53
2022-09-30T09:45:26.823Z,100117.69
2022-09-30T09:47:28.537Z,100120.56
2022-09-30T09:49:32.930Z,100128.22
2022-09-30T09:51:41.016Z,100123.91
2022-09-30T09:53:48.065Z,100130.78
2022-09-30T09:55:55.029Z,100131.47
2022-09-30T09:58:11.419Z,100139.28
2022-09-30T10:00:23.383Z,100141.69
2022-09-30T10:02:28.022Z,100133.03
2022-09-30T10:04:30.365Z,100137.19
2022-09-30T10:06:44.877Z,100131.59
2022-09-30T10:08:54.232Z,100134.13
2022-09-30T10:10:59.374Z,100134.25
2022-09-30T10:13:00.968Z,100132.97
2022-09-30T10:15:19.571Z,100137.91
2022-09-30T10:17:25.961Z,100128.91
2022-09-30T10:19:29.536Z,100128.06
2022-09-30T10:21:31.191Z,100125.47
2022-09-30T10:23:38.067Z,100121.13
2022-09-30T10:25:39.699Z,100119.66
2022-09-30T10:27:49.286Z,100131.00
2022-09-30T10:29:51.005Z,100124.44
2022-09-30T10:31:57.497Z,100122.00
2022-09-30T10:34:09.333Z,100114.00
2022-09-30T10:36:15.705Z,100120.38
2022-09-30T10:38:17.402Z,100117.78
2022-09-30T10:40:26.076Z,100119.09
2022-09-30T10:42:30.110Z,100118.88
2022-09-30T10:44:31.717Z,100113.72
2022-09-30T10:46:37.179Z,100113.31
2022-09-30T10:48:40.413Z,100115.66
2022-09-30T10:50:50.121Z,100113.72
2022-09-30T10:52:56.428Z,100099.69
2022-09-30T10:54:59.208Z,100113.28
2022-09-30T10:57:02.969Z,100108.88
2022-09-30T10:59:11.532Z,100101.34
2022-09-30T11:01:23.338Z,100094.78
2022-09-30T11:03:30.246Z,100092.34
2022-09-30T11:05:36.253Z,100091.63
2022-09-30T11:07:44.978Z,100096.69
2022-09-30T11:09:53.738Z,100092.72
2022-09-30T11:12:00.271Z,100087.97
2022-09-30T11:14:17.218Z,100087.16
2022-09-30T11:16:26.438Z,100095.66
2022-09-30T11:18:34.646Z,100098.81
2022-09-30T11:20:41.284Z,100106.31
2022-09-30T11:22:51.664Z,100109.59
2022-09-30T11:24:54.559Z,100112.03
2022-09-30T11:27:05.780Z,100104.16
2022-09-30T11:29:33.283Z,100102.81
2022-09-30T11:31:37.498Z,100100.56
2022-09-30T11:33:52.056Z,100097.16
2022-09-30T11:36:01.970Z,100103.28
2022-09-30T11:38:17.353Z,100094.22
2022-09-30T11:40:35.367Z,100098.56
2022-09-30T11:42:44.357Z,100091.78
2022-09-30T11:44:53.365Z,100090.97
2022-09-30T11:47:08.243Z,100097.50
2022-09-30T11:49:39.646Z,100096.38
2022-09-30T11:51:49.373Z,100092.47
2022-09-30T11:54:01.288Z,100092.28
2022-09-30T11:56:20.595Z,100097.66
2022-09-30T11:58:40.926Z,100100.84
2022-09-30T12:00:51.444Z,100101.59
2022-09-30T12:02:56.751Z,100095.91
2022-09-30T12:05:02.888Z,100099.69
2022-09-30T12:07:09.386Z,100101.25
2022-09-30T12:09:16.863Z,100097.28
2022-09-30T12:11:23.331Z,100104.50
2022-09-30T12:13:29.240Z,100101.06
2022-09-30T12:15:32.691Z,100104.16
2022-09-30T12:17:40.522Z,100109.06
2022-09-30T12:19:47.216Z,100107.72
2022-09-30T12:21:54.979Z,100106.94
2022-09-30T12:24:05.193Z,100106.75
2022-09-30T12:26:07.118Z,100115.06
2022-09-30T12:28:19.977Z,100111.22
2022-09-30T12:30:22.402Z,100119.91
2022-09-30T12:32:40.916Z,100118.03
2022-09-30T12:34:55.495Z,100116.69
2022-09-30T12:37:22.368Z,100122.19
2022-09-30T12:40:02.351Z,100125.03
2022-09-30T12:42:20.015Z,100124.88
2022-09-30T12:44:46.695Z,100125.34
2022-09-30T12:47:05.986Z,100128.06
2022-09-30T12:49:14.200Z,100127.63
2022-09-30T12:51:26.139Z,100128.19
2022-09-30T12:53:30.648Z,100128.19
2022-09-30T12:55:38.522Z,100121.13
2022-09-30T12:57:43.221Z,100122.63
2022-09-30T12:59:50.728Z,100118.06
2022-09-30T13:01:52.457Z,100116.69
2022-09-30T13:04:29.289Z,100121.69
2022-09-30T13:07:11.168Z,100120.56
2022-09-30T13:09:20.546Z,100119.22
2022-09-30T13:11:46.599Z,100115.47
2022-09-30T13:14:02.644Z,100112.28
2022-09-30T13:16:04.394Z,100113.09
2022-09-30T13:18:43.450Z,100112.63
2022-09-30T13:20:55.165Z,100111.47
2022-09-30T13:22:59.840Z,100112.19
2022-09-30T13:25:12.153Z,100119.81
2022-09-30T13:27:14.081Z,100123.31
2022-09-30T13:29:33.901Z,100120.22
2022-09-30T13:32:08.429Z,100120.13
2022-09-30T13:34:12.353Z,100126.03
2022-09-30T13:36:26.406Z,100129.44
2022-09-30T13:38:35.911Z,100132.06
2022-09-30T13:41:01.291Z,100124.22
2022-09-30T13:43:04.285Z,100116.81
2022-09-30T13:45:12.810Z,100120.22
2022-09-30T13:47:21.814Z,100113.63
2022-09-30T13:49:34.056Z,100119.91
2022-09-30T13:51:38.791Z,100118.28
2022-09-30T13:53:43.664Z,100118.28
2022-09-30T13:55:48.066Z,100119.91
2022-09-30T13:58:03.670Z,100116.03
2022-09-30T14:00:08.026Z,100117.50
2022-09-30T14:02:48.077Z,100125.81
2022-09-30T14:05:22.076Z,100123.63
2022-09-30T14:07:39.397Z,100123.41
2022-09-30T14:09:54.239Z,100116.44
2022-09-30T14:12:18.881Z,100119.63
2022-09-30T14:14:53.816Z,100118.19
2022-09-30T14:17:10.454Z,100112.72
2022-09-30T14:19:37.312Z,100115.09
2022-09-30T14:21:43.702Z,100114.72
2022-09-30T14:23:46.808Z,100113.94
2022-09-30T14:25:57.240Z,100108.50
2022-09-30T14:28:03.383Z,100111.22
2022-09-30T14:30:11.461Z,100109.97
2022-09-30T14:32:16.598Z,100105.97
2022-09-30T14:34:21.891Z,100103.06
2022-09-30T14:36:23.498Z,100100.31
2022-09-30T14:38:28.493Z,100103.50
2022-09-30T14:40:33.523Z,100098.38
2022-09-30T14:42:37.762Z,100099.50
2022-09-30T14:44:39.349Z,100103.84
2022-09-30T14:46:43.966Z,100111.00
2022-09-30T14:48:46.359Z,100110.31
2022-09-30T14:51:01.909Z,100109.63
2022-09-30T14:53:03.557Z,100110.75
2022-09-30T14:55:19.616Z,100113.59
2022-09-30T14:57:24.118Z,100108.94
2022-09-30T14:59:27.399Z,100112.47
2022-09-30T15:01:34.473Z,100113.28
2022-09-30T15:03:39.881Z,100110.09
2022-09-30T15:05:41.550Z,100109.19
2022-09-30T15:07:43.225Z,100110.75
2022-09-30T15:09:46.519Z,100107.56
2022-09-30T15:11:48.181Z,100109.06
2022-09-30T15:13:59.889Z,100105.88
2022-09-30T15:16:01.791Z,100108.50
2022-09-30T15:18:25.692Z,100104.97
2022-09-30T15:20:30.918Z,100102.13
2022-09-30T15:22:32.529Z,100103.28
2022-09-30T15:24:36.249Z,100104.75
2022-09-30T15:26:38.811Z,100101.56
2022-09-30T15:28:40.512Z,100094.97
2022-09-30T15:30:43.498Z,100105.13
2022-09-30T15:32:46.668Z,100096.94
2022-09-30T15:34:48.346Z,100103.53
2022-09-30T15:36:58.778Z,100101.13
2022-09-30T15:39:00.608Z,100100.22
2022-09-30T15:41:06.131Z,100096.38
2022-09-30T15:43:09.304Z,100088.63
2022-09-30T15:45:33.521Z,100092.16
2022-09-30T15:47:54.108Z,100084.41
2022-09-30T15:49:55.695Z,100094.19
2022-09-30T15:52:28.136Z,100086.34
2022-09-30T15:54:34.609Z,100091.94
2022-09-30T15:56:37.309Z,100089.63
2022-09-30T15:58:39.376Z,100093.50
2022-09-30T16:00:41.975Z,100095.91
2022-09-30T16:02:45.146Z,100092.81
2022-09-30T16:04:50.882Z,100090.09
2022-09-30T16:06:54.666Z,100078.47
2022-09-30T16:08:58.547Z,100088.59
2022-09-30T16:11:00.105Z,100083.84
2022-09-30T16:13:05.464Z,100076.91
2022-09-30T16:15:10.455Z,100084.41
2022-09-30T16:17:18.595Z,100083.97
2022-09-30T16:19:22.877Z,100090.44
2022-09-30T16:21:38.227Z,100089.75
2022-09-30T16:23:42.410Z,100093.63
2022-09-30T16:25:44.035Z,100094.41
2022-09-30T16:27:46.480Z,100096.81
2022-09-30T16:29:48.033Z,100099.19
2022-09-30T16:31:51.201Z,100088.25
2022-09-30T16:33:52.958Z,100090.09
2022-09-30T16:35:55.829Z,100088.28
2022-09-30T16:38:01.947Z,100088.28
2022-09-30T16:40:17.113Z,100091.56
2022-09-30T16:42:19.182Z,100084.31
2022-09-30T16:44:20.747Z,100092.03
2022-09-30T16:46:22.328Z,100099.44
2022-09-30T16:48:23.890Z,100098.59
2022-09-30T16:50:34.916Z,100100.56
2022-09-30T16:52:37.823Z,100096.69
2022-09-30T16:54:43.218Z,100098.50
2022-09-30T16:56:44.758Z,100096.25
2022-09-30T16:58:47.156Z,100103.50
2022-09-30T17:00:48.777Z,100104.97
2022-09-30T17:02:50.592Z,100110.09
2022-09-30T17:04:54.014Z,100112.03
2022-09-30T17:06:57.061Z,100111.09
2022-09-30T17:09:00.188Z,100122.25
2022-09-30T17:11:01.728Z,100117.56
2022-09-30T17:13:03.274Z,100121.91
2022-09-30T17:15:05.369Z,100120.53
2022-09-30T17:17:09.826Z,100120.38
2022-09-30T17:19:14.670Z,100123.47
2022-09-30T17:21:17.147Z,100127.66
2022-09-30T17:23:19.384Z,100131.41
2022-09-30T17:25:22.352Z,100138.31
2022-09-30T17:27:24.097Z,100140.78
2022-09-30T17:29:32.477Z,100137.59
2022-09-30T17:31:34.735Z,100132.66
2022-09-30T17:33:38.331Z,100133.00
2022-09-30T17:35:40.354Z,100134.59
2022-09-30T17:37:45.355Z,100129.81
2022-09-30T17:39:48.046Z,100134.34
2022-09-30T17:41:50.866Z,100131.59
2022-09-30T17:43:52.547Z,100134.91
2022-09-30T17:45:59.287Z,100140.66
2022-09-30T17:48:01.332Z,100146.13
2022-09-30T17:50:03.207Z,100145.22
2022-09-30T17:52:05.183Z,100149.06
2022-09-30T17:54:07.306Z,100142.78
2022-09-30T17:56:17.526Z,100150.53
2022-09-30T17:58:20.535Z,100151.53
2022-09-30T18:00:22.298Z,100155.38
2022-09-30T18:02:23.847Z,100150.44
2022-09-30T18:04:25.763Z,100148.84
2022-09-30T18:06:28.221Z,100153.97
2022-09-30T18:08:29.771Z,100159.75
2022-09-30T18:10:31.702Z,100165.06
2022-09-30T18:12:33.334Z,100163.16
2022-09-30T18:14:36.278Z,100160.13
2022-09-30T18:16:37.913Z,100174.41
2022-09-30T18:18:39.517Z,100176.34
2022-09-30T18:20:42.711Z,100180.97
2022-09-30T18:22:44.446Z,100179.38
2022-09-30T18:24:45.979Z,100183.34
2022-09-30T18:26:47.488Z,100191.38
2022-09-30T18:28:49.136Z,100192.38
2022-09-30T18:30:52.137Z,100188.72
2022-09-30T18:32:54.446Z,100197.41
2022-09-30T18:34:56.613Z,100203.00
2022-09-30T18:36:58.191Z,100214.38
2022-09-30T18:39:00.268Z,100209.44
2022-09-30T18:41:02.184Z,100208.66
2022-09-30T18:43:05.259Z,100204.06
2022-09-30T18:45:07.685Z,100201.63
2022-09-30T18:47:10.717Z,100203.56
2022-09-30T18:49:12.256Z,100196.69
2022-09-30T18:51:13.749Z,100203.44
2022-09-30T18:53:15.328Z,100206.78
2022-09-30T18:55:17.353Z,100206.66
2022-09-30T18:57:18.961Z,100209.88
2022-09-30T18:59:23.412Z,100199.00
2022-09-30T19:01:26.137Z,100205.41
2022-09-30T19:03:29.667Z,100199.81
2022-09-30T19:05:31.424Z,100192.00
2022-09-30T19:07:33.211Z,100188.97
2022-09-30T19:09:34.825Z,100185.78
